Drummond, Idaho
Current Conditions -  °F | °C
As of 8:56 AM on Sunday 23 Nov 2014 (Local Time) from KDIJ Reporting Station
Broken Clouds Broken Clouds  
Wind Chill:   Ceiling: 6500
Heat Index: 19°   Visibility: 10mi
Dew Point: 14°   Wind: 8mph
Humidity: 81%   Direction: 70°ENE
Pressure: 30.05"   Gusts: NA
Location:  44.0126°N, 111.37°W
Report Text: KDIJ 231556Z AUTO 07007KT 10SM BKN065 M07/M10 A3005 RMK AO2 T10721100 BKN V SCT SLP208
Loading
Personal Weather Stations






























Interactive Weather Map New forecast layout! Learn more

10-Day Weather Forecast

Advertisements
Track Severe Weather on mobile